Time;durP1;ratioP1;P1;durP2;ratioP2;P2;SDS_P1;SDS_P2;PMS_P1;PMS_P2;Temp;Humidity;BMP_temperature;BMP_pressure;BME280_temperature;BME280_humidity;BME280_pressure;Samples;Min_cycle;Max_cycle;Signal;HPM_P1;HPM_P2
2021/10/29 00:00:04;;;;;;;;;;;;;;;6.57;68.07;98709.11;1700807;83;24708;-87
2021/10/29 00:02:32;;;;;;;;;;;;;;;6.75;68.19;98707.36;1703922;83;20149;-86
2021/10/29 00:04:58;;;;;;;;;;;;;;;6.83;68.28;98704.74;1698860;83;25987;-87
2021/10/29 00:07:29;;;;;;;;;;;;;;;6.92;68.36;98706.90;1695696;83;23922;-86
2021/10/29 00:09:55;;;;;;;;;;;;;;;7.02;68.43;98708.11;1694857;82;20202;-86
2021/10/29 00:12:22;;;;;;;;;;;;;;;7.11;68.52;98708.93;1693035;83;24722;-87
2021/10/29 00:14:49;;;;;;;;;;;;;;;7.03;68.53;98707.20;1685639;83;22034;-86
2021/10/29 00:17:19;;;;;;;;;;;;;;;6.83;68.49;98704.74;1697044;82;25549;-86
2021/10/29 00:19:48;;;;;;;;;;;;;;;6.67;68.46;98704.67;1694691;83;24589;-86
2021/10/29 00:22:14;;;;;;;;;;;;;;;6.51;68.46;98697.70;1695911;82;20206;-87
2021/10/29 00:24:40;;;;;;;;;;;;;;;6.31;68.44;98698.69;1687569;83;24774;-86
2021/10/29 00:27:06;;;;;;;;;;;;;;;6.19;68.43;98701.41;1701161;83;21976;-86
2021/10/29 00:29:33;;;;;;;;;;;;;;;6.18;68.46;98702.33;1694788;83;25943;-86
2021/10/29 00:31:58;;;;;;;;;;;;;;;6.10;68.47;98704.92;1718767;82;20311;-86
2021/10/29 00:34:24;;;;;;;;;;;;;;;6.13;68.51;98703.00;1736990;81;20251;-85
2021/10/29 00:36:50;;;;;;;;;;;;;;;6.08;68.53;98698.94;1722811;82;20408;-86
2021/10/29 00:39:17;;;;;;;;;;;;;;;6.05;68.57;98690.85;1705927;81;22209;-86
2021/10/29 00:41:43;;;;;;;;;;;;;;;6.06;68.63;98691.66;1721521;82;26253;-86
2021/10/29 00:44:09;;;;;;;;;;;;;;;6.21;68.73;98697.00;1685198;83;24503;-86
2021/10/29 00:46:35;;;;;;;;;;;;;;;6.30;68.85;98682.25;1690362;82;20359;-86
2021/10/29 00:49:01;;;;;;;;;;;;;;;6.30;68.92;98686.14;1705064;83;20345;-86
2021/10/29 00:51:28;;;;;;;;;;;;;;;6.18;68.95;98678.94;1708974;83;22004;-86
2021/10/29 00:53:57;;;;;;;;;;;;;;;6.10;68.99;98677.18;1721289;82;25894;-86
2021/10/29 00:56:25;;;;;;;;;;;;;;;5.99;69.01;98680.75;1733201;82;20149;-86
2021/10/29 00:58:51;;;;;;;;;;;;;;;5.96;69.04;98671.78;1731962;82;20493;-86
2021/10/29 01:01:17;;;;;;;;;;;;;;;6.11;69.12;98669.75;1727456;82;20759;-86
2021/10/29 01:03:43;;;;;;;;;;;;;;;6.14;69.19;98663.58;1726639;82;22020;-86
2021/10/29 01:06:09;;;;;;;;;;;;;;;6.22;69.28;98667.47;1726439;82;25962;-86
2021/10/29 01:08:36;;;;;;;;;;;;;;;6.30;69.36;98657.56;1726799;82;24494;-85
2021/10/29 01:11:03;;;;;;;;;;;;;;;6.36;69.43;98656.88;1732426;82;20244;-86
2021/10/29 01:13:31;;;;;;;;;;;;;;;6.40;69.49;98658.39;1729416;82;24771;-86
2021/10/29 01:15:57;;;;;;;;;;;;;;;6.29;69.50;98655.03;1732668;82;21998;-86
2021/10/29 01:18:23;;;;;;;;;;;;;;;6.18;69.47;98655.55;1728499;82;25865;-86
2021/10/29 01:20:49;;;;;;;;;;;;;;;6.15;69.51;98653.11;1735925;82;24481;-85
2021/10/29 01:23:16;;;;;;;;;;;;;;;6.03;69.49;98648.50;1728851;82;20269;-85
2021/10/29 01:25:42;;;;;;;;;;;;;;;5.94;69.50;98654.60;1728813;82;24672;-85
2021/10/29 01:28:13;;;;;;;;;;;;;;;6.02;69.55;98657.20;1726014;82;21972;-85
2021/10/29 01:30:39;;;;;;;;;;;;;;;6.05;69.60;98657.08;1731308;82;26082;-85
2021/10/29 01:33:12;;;;;;;;;;;;;;;6.08;69.66;98649.12;1736353;82;24753;-85
2021/10/29 01:35:38;;;;;;;;;;;;;;;6.14;69.75;98651.88;1725209;82;20209;-85
2021/10/29 01:38:06;;;;;;;;;;;;;;;6.19;69.81;98645.55;1728434;82;24638;-85
2021/10/29 01:40:34;;;;;;;;;;;;;;;6.21;69.86;98643.73;1729489;82;22040;-85
2021/10/29 01:42:59;;;;;;;;;;;;;;;6.27;69.89;98646.48;1732125;82;26009;-85
2021/10/29 01:45:25;;;;;;;;;;;;;;;6.28;69.92;98637.28;1730850;82;20314;-85
2021/10/29 01:47:51;;;;;;;;;;;;;;;6.33;69.95;98640.95;1728791;82;20479;-85
2021/10/29 01:50:19;;;;;;;;;;;;;;;6.16;69.93;98637.07;1730633;82;20194;-85
2021/10/29 01:52:45;;;;;;;;;;;;;;;6.00;69.89;98633.53;1729716;82;20789;-85
2021/10/29 01:55:14;;;;;;;;;;;;;;;5.87;69.88;98631.97;1711991;82;20951;-85
2021/10/29 01:57:40;;;;;;;;;;;;;;;5.92;69.90;98635.19;1702261;83;24626;-85
2021/10/29 02:00:13;;;;;;;;;;;;;;;5.87;69.92;98634.11;1738814;81;20243;-85
2021/10/29 02:02:40;;;;;;;;;;;;;;;5.95;69.97;98628.98;1703459;83;24827;-85
2021/10/29 02:05:07;;;;;;;;;;;;;;;5.95;70.03;98623.34;1703589;82;21917;-85
2021/10/29 02:07:35;;;;;;;;;;;;;;;5.79;70.04;98634.05;1714464;81;25778;-85
2021/10/29 02:10:02;;;;;;;;;;;;;;;5.54;70.00;98636.11;1736659;81;24452;-85
2021/10/29 02:12:28;;;;;;;;;;;;;;;5.47;69.97;98642.04;1718180;82;20190;-85
2021/10/29 02:14:54;;;;;;;;;;;;;;;5.57;70.03;98635.95;1697658;82;24774;-86
2021/10/29 02:17:23;;;;;;;;;;;;;;;5.62;70.11;98628.83;1695391;83;20830;-86
2021/10/29 02:19:49;;;;;;;;;;;;;;;5.61;70.13;98625.39;1690954;83;25969;-86
2021/10/29 02:22:15;;;;;;;;;;;;;;;5.58;70.19;98625.97;1700016;83;24401;-86
2021/10/29 02:24:41;;;;;;;;;;;;;;;5.59;70.21;98625.06;1697574;82;20456;-87
2021/10/29 02:27:09;;;;;;;;;;;;;;;5.62;70.28;98631.42;1680428;83;20236;-85
2021/10/29 02:29:41;;;;;;;;;;;;;;;5.66;70.32;98624.71;1694685;82;22719;-85
2021/10/29 02:32:07;;;;;;;;;;;;;;;5.56;70.32;98631.70;1692630;82;26058;-85
2021/10/29 02:34:34;;;;;;;;;;;;;;;5.41;70.34;98630.19;1693279;83;24421;-85
2021/10/29 02:37:00;;;;;;;;;;;;;;;5.47;70.37;98619.52;1698170;83;20154;-85
2021/10/29 02:39:26;;;;;;;;;;;;;;;5.64;70.47;98614.00;1691567;82;20246;-85
2021/10/29 02:41:51;;;;;;;;;;;;;;;5.75;70.57;98611.28;1690534;83;20237;-85
2021/10/29 02:44:17;;;;;;;;;;;;;;;5.82;70.62;98617.03;1698593;83;21132;-85
2021/10/29 02:46:43;;;;;;;;;;;;;;;5.87;70.69;98613.34;1694852;82;20311;-86
2021/10/29 02:49:09;;;;;;;;;;;;;;;5.91;70.71;98614.02;1697922;82;20260;-86
2021/10/29 02:51:35;;;;;;;;;;;;;;;5.91;70.74;98611.88;1689477;82;20672;-85
2021/10/29 02:54:10;;;;;;;;;;;;;;;5.87;70.72;98616.39;1689737;82;20274;-85
2021/10/29 02:56:36;;;;;;;;;;;;;;;5.65;70.67;98612.64;1725818;82;26063;-85
2021/10/29 02:59:02;;;;;;;;;;;;;;;5.43;70.59;98615.84;1702866;83;24323;-85
2021/10/29 03:01:28;;;;;;;;;;;;;;;5.26;70.56;98620.52;1703446;82;20319;-85
2021/10/29 03:03:59;;;;;;;;;;;;;;;5.15;70.55;98611.52;1694229;82;24934;-85
2021/10/29 03:06:23;;;;;;;;;;;;;;;5.19;70.57;98616.50;1712956;82;22669;-85
2021/10/29 03:08:49;;;;;;;;;;;;;;;5.20;70.61;98616.05;1699137;83;26162;-86
2021/10/29 03:11:15;;;;;;;;;;;;;;;5.14;70.63;98612.44;1703169;83;20259;-86
2021/10/29 03:13:47;;;;;;;;;;;;;;;5.12;70.67;98612.52;1726560;82;20210;-86
2021/10/29 03:16:15;;;;;;;;;;;;;;;5.24;70.74;98615.84;1701241;83;25480;-85
2021/10/29 03:18:41;;;;;;;;;;;;;;;5.29;70.79;98613.06;1721556;82;22050;-86
2021/10/29 03:21:07;;;;;;;;;;;;;;;5.35;70.86;98604.97;1706363;82;21196;-86
2021/10/29 03:23:33;;;;;;;;;;;;;;;5.39;70.90;98602.64;1674738;84;24721;-85
2021/10/29 03:26:05;;;;;;;;;;;;;;;5.37;70.92;98613.08;1700704;82;21050;-85
2021/10/29 03:28:35;;;;;;;;;;;;;;;5.40;70.94;98602.55;1705793;83;24932;-86
2021/10/29 03:31:01;;;;;;;;;;;;;;;5.45;70.96;98603.66;1702213;83;22168;-85
2021/10/29 03:33:28;;;;;;;;;;;;;;;5.44;70.98;98611.89;1699773;82;26000;-85
2021/10/29 03:35:54;;;;;;;;;;;;;;;5.28;70.95;98609.62;1700144;82;24240;-86
2021/10/29 03:41:08;;;;;;;;;;;;;;;5.21;70.95;98613.84;1695047;83;24841;-85
2021/10/29 03:43:36;;;;;;;;;;;;;;;5.22;70.98;98607.75;1717368;82;22104;-85
2021/10/29 03:56:30;;;;;;;;;;;;;;;5.21;71.16;98606.91;1678575;83;22061;-85
2021/10/29 03:58:59;;;;;;;;;;;;;;;5.16;71.17;98606.73;1692251;82;25901;-86
2021/10/29 04:01:30;;;;;;;;;;;;;;;5.14;71.16;98610.69;1696237;82;24527;-85
2021/10/29 04:03:53;;;;;;;;;;;;;;;5.17;71.19;98604.53;1696695;82;20161;-85
2021/10/29 04:06:22;;;;;;;;;;;;;;;5.09;71.20;98604.86;1725253;82;20784;-86
2021/10/29 04:08:47;;;;;;;;;;;;;;;5.04;71.21;98608.97;1733720;82;21816;-86
2021/10/29 04:11:14;;;;;;;;;;;;;;;5.09;71.23;98601.42;1697889;82;26032;-84
2021/10/29 04:13:43;;;;;;;;;;;;;;;5.13;71.29;98602.51;1669614;84;24467;-84
2021/10/29 04:16:08;;;;;;;;;;;;;;;5.11;71.32;98599.16;1692281;82;20231;-84
2021/10/29 04:18:35;;;;;;;;;;;;;;;5.15;71.37;98598.10;1694571;83;24869;-85
2021/10/29 04:21:02;;;;;;;;;;;;;;;5.20;71.39;98597.44;1699365;82;21940;-84
2021/10/29 04:23:28;;;;;;;;;;;;;;;5.24;71.44;98598.13;1697953;82;26050;-84
2021/10/29 04:25:54;;;;;;;;;;;;;;;5.25;71.47;98594.17;1684180;83;20879;-84
2021/10/29 04:28:21;;;;;;;;;;;;;;;5.26;71.52;98584.64;1694213;82;20260;-84
2021/10/29 04:30:51;;;;;;;;;;;;;;;5.15;71.53;98594.22;1676549;83;24811;-85
2021/10/29 04:33:19;;;;;;;;;;;;;;;5.16;71.54;98596.36;1695344;82;22097;-84
2021/10/29 04:35:45;;;;;;;;;;;;;;;5.17;71.56;98598.89;1701232;82;26063;-84
2021/10/29 04:38:12;;;;;;;;;;;;;;;5.16;71.59;98594.61;1691535;82;25328;-85
2021/10/29 04:40:41;;;;;;;;;;;;;;;5.21;71.63;98596.98;1690868;83;20203;-85
2021/10/29 04:43:10;;;;;;;;;;;;;;;5.28;71.64;98586.27;1691097;82;24823;-84
2021/10/29 04:45:36;;;;;;;;;;;;;;;5.29;71.67;98591.00;1731333;82;22018;-85
2021/10/29 04:48:03;;;;;;;;;;;;;;;5.32;71.71;98590.84;1700172;82;25971;-84
2021/10/29 04:50:36;;;;;;;;;;;;;;;5.19;71.71;98594.45;1687328;82;24047;-84
2021/10/29 04:52:59;;;;;;;;;;;;;;;5.22;71.73;98585.25;1680303;83;20303;-84
2021/10/29 04:55:26;;;;;;;;;;;;;;;5.21;71.74;98582.72;1715875;81;24900;-84
2021/10/29 04:57:52;;;;;;;;;;;;;;;5.26;71.79;98577.70;1701730;82;22316;-85
2021/10/29 05:00:19;;;;;;;;;;;;;;;5.33;71.84;98569.19;1725749;81;21056;-84
2021/10/29 05:02:45;;;;;;;;;;;;;;;5.36;71.87;98571.62;1719665;81;24411;-84
2021/10/29 05:05:11;;;;;;;;;;;;;;;5.38;71.88;98565.91;1722608;81;20786;-85
2021/10/29 05:07:38;;;;;;;;;;;;;;;5.26;71.85;98566.48;1712022;81;24730;-85
2021/10/29 05:10:04;;;;;;;;;;;;;;;5.05;71.80;98575.64;1724938;81;21993;-85
2021/10/29 05:12:31;;;;;;;;;;;;;;;4.98;71.79;98578.11;1719609;81;26146;-85
2021/10/29 05:14:57;;;;;;;;;;;;;;;4.97;71.78;98577.72;1719474;81;24529;-85
2021/10/29 05:17:23;;;;;;;;;;;;;;;4.98;71.81;98579.86;1727639;81;20229;-84
2021/10/29 05:19:49;;;;;;;;;;;;;;;4.91;71.82;98575.89;1715972;81;25478;-85
2021/10/29 05:22:15;;;;;;;;;;;;;;;4.78;71.80;98578.63;1716396;81;20239;-85
2021/10/29 05:24:41;;;;;;;;;;;;;;;4.65;71.80;98577.02;1720020;81;21623;-85
2021/10/29 05:27:07;;;;;;;;;;;;;;;4.68;71.81;98582.08;1714418;81;24679;-85
2021/10/29 05:29:33;;;;;;;;;;;;;;;4.76;71.87;98579.12;1727033;81;20447;-85
2021/10/29 05:32:02;;;;;;;;;;;;;;;4.70;71.88;98581.98;1717893;81;20280;-85
2021/10/29 05:34:28;;;;;;;;;;;;;;;4.79;71.97;98578.56;1714970;81;22188;-85
2021/10/29 05:36:55;;;;;;;;;;;;;;;4.69;71.99;98576.45;1719427;81;26023;-85
2021/10/29 05:39:21;;;;;;;;;;;;;;;4.44;71.94;98583.13;1711952;81;24455;-85
2021/10/29 05:41:53;;;;;;;;;;;;;;;4.34;71.91;98583.98;1721714;81;20636;-85
2021/10/29 05:44:19;;;;;;;;;;;;;;;4.32;71.92;98582.34;1718102;81;24795;-85
2021/10/29 05:46:46;;;;;;;;;;;;;;;4.24;71.95;98587.87;1727062;81;21953;-85
2021/10/29 05:49:14;;;;;;;;;;;;;;;4.14;71.96;98585.28;1717742;81;26133;-85
2021/10/29 05:51:49;;;;;;;;;;;;;;;4.05;71.95;98580.45;1720684;81;23899;-84
2021/10/29 05:54:24;;;;;;;;;;;;;;;3.96;71.96;98576.52;1715499;81;20287;-84
2021/10/29 05:56:40;;;;;;;;;;;;;;;4.08;72.04;98588.97;1673228;82;24753;-85
2021/10/29 05:59:06;;;;;;;;;;;;;;;4.19;72.15;98584.63;1698846;82;23302;-85
2021/10/29 06:01:33;;;;;;;;;;;;;;;4.26;72.24;98576.13;1721180;81;20932;-85
2021/10/29 06:03:59;;;;;;;;;;;;;;;4.21;72.31;98581.05;1693059;82;24430;-85
2021/10/29 06:06:25;;;;;;;;;;;;;;;4.23;72.40;98578.86;1720696;82;20215;-85
2021/10/29 06:08:51;;;;;;;;;;;;;;;4.23;72.49;98582.74;1705763;82;24268;-85
2021/10/29 06:11:18;;;;;;;;;;;;;;;4.31;72.60;98587.98;1723570;82;20820;-85
2021/10/29 06:13:44;;;;;;;;;;;;;;;4.43;72.70;98587.91;1707034;81;26650;-85
2021/10/29 06:16:11;;;;;;;;;;;;;;;4.42;72.80;98590.14;1700200;83;20268;-85
2021/10/29 06:18:37;;;;;;;;;;;;;;;4.47;72.89;98591.60;1708138;81;20225;-85
2021/10/29 06:21:04;;;;;;;;;;;;;;;4.47;72.95;98595.48;1693333;83;25507;-85
2021/10/29 06:23:47;;;;;;;;;;;;;;;4.51;72.98;98608.72;1694263;83;21967;-85
2021/10/29 06:26:02;;;;;;;;;;;;;;;4.53;73.02;98603.00;1698287;82;26797;-85
2021/10/29 06:28:28;;;;;;;;;;;;;;;4.62;73.09;98598.74;1700277;82;25353;-85
2021/10/29 06:30:55;;;;;;;;;;;;;;;4.60;73.10;98603.14;1695241;83;20509;-84
2021/10/29 06:33:23;;;;;;;;;;;;;;;4.64;73.14;98602.09;1722770;81;24791;-85
2021/10/29 06:35:50;;;;;;;;;;;;;;;4.77;73.21;98606.75;1704396;83;22129;-84
2021/10/29 06:38:16;;;;;;;;;;;;;;;4.84;73.28;98599.09;1692610;83;25986;-84
2021/10/29 06:40:49;;;;;;;;;;;;;;;4.90;73.34;98597.08;1686165;83;24518;-84
2021/10/29 06:43:28;;;;;;;;;;;;;;;4.99;73.41;98607.03;1687179;83;20514;-84
2021/10/29 06:46:13;;;;;;;;;;;;;;;5.10;73.48;98613.03;1700214;82;24779;-84
2021/10/29 06:48:48;;;;;;;;;;;;;;;5.17;73.54;98609.27;1699133;82;22177;-85
2021/10/29 06:59:23;;;;;;;;;;;;;;;5.31;73.74;98615.11;1699135;83;24886;-85
2021/10/29 07:01:56;;;;;;;;;;;;;;;5.36;73.82;98616.58;1694312;83;22171;-84
2021/10/29 07:42:18;;;;;;;;;;;;;;;6.28;74.54;98616.95;1720535;82;22776;-85
2021/10/29 07:44:43;;;;;;;;;;;;;;;6.36;74.59;98618.73;1698702;82;25994;-85
2021/10/29 07:47:09;;;;;;;;;;;;;;;6.42;74.64;98611.93;1690069;83;24492;-85
2021/10/29 07:49:35;;;;;;;;;;;;;;;6.46;74.67;98610.84;1688419;83;20253;-85
2021/10/29 07:52:02;;;;;;;;;;;;;;;6.49;74.70;98607.27;1682117;83;20348;-85
2021/10/29 07:54:29;;;;;;;;;;;;;;;6.54;74.74;98600.91;1692361;83;22080;-84
2021/10/29 07:56:55;;;;;;;;;;;;;;;6.71;74.81;98600.02;1735706;81;26071;-84
2021/10/29 07:59:21;;;;;;;;;;;;;;;6.76;74.85;98598.05;1692616;82;20440;-84
2021/10/29 08:01:47;;;;;;;;;;;;;;;6.88;74.89;98599.99;1718079;82;20242;-85
2021/10/29 08:04:15;;;;;;;;;;;;;;;6.95;74.94;98597.45;1718363;82;24212;-85
2021/10/29 08:06:41;;;;;;;;;;;;;;;7.00;74.98;98596.75;1693460;82;22581;-85
2021/10/29 08:09:08;;;;;;;;;;;;;;;7.02;74.98;98598.83;1694239;82;25929;-85
2021/10/29 08:11:34;;;;;;;;;;;;;;;7.08;75.03;98601.11;1682285;83;25080;-85
2021/10/29 08:13:59;;;;;;;;;;;;;;;7.14;75.07;98601.24;1687188;83;20289;-85
2021/10/29 08:16:26;;;;;;;;;;;;;;;7.23;75.13;98599.90;1688127;84;20245;-85
2021/10/29 08:18:53;;;;;;;;;;;;;;;7.33;75.17;98599.78;1693408;83;21966;-85
2021/10/29 08:21:19;;;;;;;;;;;;;;;7.48;75.29;98597.64;1724403;82;26163;-85
2021/10/29 08:23:45;;;;;;;;;;;;;;;7.59;75.33;98596.58;1694705;82;20327;-85
2021/10/29 08:26:14;;;;;;;;;;;;;;;7.72;75.39;98594.16;1725383;81;20269;-85
2021/10/29 08:28:40;;;;;;;;;;;;;;;7.83;75.43;98592.63;1715818;82;24934;-85
2021/10/29 08:31:07;;;;;;;;;;;;;;;7.92;75.47;98590.80;1715252;82;21955;-85
2021/10/29 08:33:32;;;;;;;;;;;;;;;8.01;75.52;98584.70;1686824;83;25921;-85
2021/10/29 08:36:00;;;;;;;;;;;;;;;8.10;75.52;98593.29;1728838;82;20329;-85
2021/10/29 08:38:26;;;;;;;;;;;;;;;8.18;75.56;98585.88;1723917;82;20234;-85
2021/10/29 08:40:58;;;;;;;;;;;;;;;8.27;75.54;98586.19;1717764;82;25458;-85
2021/10/29 08:43:21;;;;;;;;;;;;;;;8.37;75.56;98592.56;1697437;82;22012;-85
2021/10/29 08:45:47;;;;;;;;;;;;;;;8.46;75.51;98587.27;1707643;82;21063;-85
2021/10/29 08:48:13;;;;;;;;;;;;;;;8.58;75.46;98581.80;1708506;82;24426;-85
2021/10/29 08:50:40;;;;;;;;;;;;;;;8.71;75.43;98589.28;1702923;82;20289;-85
2021/10/29 08:53:06;;;;;;;;;;;;;;;8.83;75.41;98589.02;1705776;82;24807;-86
2021/10/29 08:55:35;;;;;;;;;;;;;;;8.94;75.40;98580.07;1703167;82;22208;-86
2021/10/29 08:58:04;;;;;;;;;;;;;;;9.08;75.37;98583.50;1714656;81;26064;-85
2021/10/29 09:00:32;;;;;;;;;;;;;;;9.26;75.36;98577.63;1708932;79;25070;-85
2021/10/29 09:03:18;;;;;;;;;;;;;;;9.40;75.26;98574.97;1708723;81;20184;-85
2021/10/29 09:05:57;;;;;;;;;;;;;;;9.56;75.21;98573.06;1707855;81;24799;-85
2021/10/29 09:08:28;;;;;;;;;;;;;;;9.73;75.20;98572.00;1717039;81;21254;-85
2021/10/29 09:32:34;;;;;;;;;;;;;;;11.30;73.68;98560.44;1720428;81;25060;-85
2021/10/29 09:35:14;;;;;;;;;;;;;;;11.42;73.56;98559.20;1755848;80;21796;-85
2021/10/29 09:37:54;;;;;;;;;;;;;;;11.49;73.44;98561.28;1692324;82;25857;-85
2021/10/29 09:40:24;;;;;;;;;;;;;;;11.56;73.25;98565.16;1692119;83;24538;-85
2021/10/29 09:42:52;;;;;;;;;;;;;;;11.62;73.07;98558.60;1715028;81;20476;-85
2021/10/29 09:45:25;;;;;;;;;;;;;;;11.70;72.84;98557.59;1712711;81;24212;-86
2021/10/29 09:48:11;;;;;;;;;;;;;;;11.85;72.55;98564.37;1716195;81;22100;-85
2021/10/29 09:50:47;;;;;;;;;;;;;;;12.08;71.99;98564.84;1711014;81;25973;-85
2021/10/29 09:53:22;;;;;;;;;;;;;;;12.24;71.65;98558.45;1715085;81;25216;-85
2021/10/29 09:55:57;;;;;;;;;;;;;;;12.33;71.35;98564.34;1716412;81;20344;-85
2021/10/29 09:58:20;;;;;;;;;;;;;;;12.50;70.86;98562.57;1713164;81;24987;-86
2021/10/29 10:00:49;;;;;;;;;;;;;;;12.73;70.13;98560.83;1706847;81;22324;-85
2021/10/29 10:03:17;;;;;;;;;;;;;;;12.90;69.47;98545.45;1711818;81;25977;-85
2021/10/29 10:05:44;;;;;;;;;;;;;;;13.14;68.76;98538.81;1719970;81;24456;-86
2021/10/29 10:08:11;;;;;;;;;;;;;;;13.35;68.01;98539.73;1716056;81;20292;-86
2021/10/29 10:10:38;;;;;;;;;;;;;;;13.56;67.31;98536.34;1712331;82;24759;-85
2021/10/29 10:13:05;;;;;;;;;;;;;;;13.77;66.54;98536.76;1714053;82;22008;-86
2021/10/29 10:15:31;;;;;;;;;;;;;;;13.93;65.75;98534.19;1720349;81;25952;-86
2021/10/29 10:17:57;;;;;;;;;;;;;;;14.01;65.12;98531.30;1717781;82;24456;-85
2021/10/29 10:20:24;;;;;;;;;;;;;;;14.08;64.53;98531.13;1715500;81;20235;-86
2021/10/29 10:22:51;;;;;;;;;;;;;;;14.19;63.81;98526.29;1708543;81;25312;-85
2021/10/29 10:25:35;;;;;;;;;;;;;;;14.28;63.20;98521.59;1712194;82;22873;-85
2021/10/29 10:31:04;;;;;;;;;;;;;;;14.45;62.04;98519.73;1715417;81;24276;-85
2021/10/29 10:45:00;;;;;;;;;;;;;;;14.99;58.55;98511.55;1719083;83;24471;-86
2021/10/29 10:46:47;;;;;;;;;;;;;;;15.06;57.93;98523.21;1727188;80;20236;-86
2021/10/29 10:49:13;;;;;;;;;;;;;;;15.09;57.43;98518.17;1717974;81;24802;-86
2021/10/29 10:54:29;;;;;;;;;;;;;;;15.15;56.54;98507.58;1715683;82;26103;-86
2021/10/29 11:02:34;;;;;;;;;;;;;;;15.40;54.96;98511.03;1720605;81;25786;-86
2021/10/29 11:04:55;;;;;;;;;;;;;;;15.37;54.46;98504.25;1715432;81;21935;-86
2021/10/29 11:10:15;;;;;;;;;;;;;;;15.52;53.50;98502.08;1717290;81;24457;-86
2021/10/29 11:12:43;;;;;;;;;;;;;;;15.56;53.10;98498.67;1695320;82;20439;-85
2021/10/29 11:15:21;;;;;;;;;;;;;;;15.57;52.72;98489.31;1697247;82;24815;-86
2021/10/29 11:17:49;;;;;;;;;;;;;;;15.63;52.45;98492.73;1697073;82;22774;-85
2021/10/29 11:20:34;;;;;;;;;;;;;;;15.67;51.94;98490.15;1729374;82;26029;-86
2021/10/29 11:23:11;;;;;;;;;;;;;;;15.74;51.54;98493.91;1696834;82;24495;-86
2021/10/29 11:25:49;;;;;;;;;;;;;;;15.82;50.92;98485.29;1673836;83;21616;-86
2021/10/29 11:28:16;;;;;;;;;;;;;;;15.88;50.53;98480.78;1689861;82;25101;-86
2021/10/29 11:30:43;;;;;;;;;;;;;;;16.00;50.10;98486.27;1696964;82;22592;-86
2021/10/29 11:33:10;;;;;;;;;;;;;;;16.09;49.66;98489.89;1690916;82;25928;-85
2021/10/29 11:35:36;;;;;;;;;;;;;;;16.08;49.42;98487.73;1697757;82;24450;-86
2021/10/29 11:38:04;;;;;;;;;;;;;;;16.10;49.16;98479.66;1693431;82;20242;-85
2021/10/29 11:40:31;;;;;;;;;;;;;;;16.12;48.92;98483.00;1693292;82;24770;-85
2021/10/29 11:42:57;;;;;;;;;;;;;;;16.21;48.63;98486.11;1692623;82;22042;-86
2021/10/29 11:45:35;;;;;;;;;;;;;;;16.24;48.41;98471.31;1694317;82;26211;-85
2021/10/29 11:48:02;;;;;;;;;;;;;;;16.23;48.18;98481.05;1695347;82;24504;-85
2021/10/29 11:50:29;;;;;;;;;;;;;;;16.25;48.00;98474.31;1723530;81;20174;-85
2021/10/29 11:52:56;;;;;;;;;;;;;;;16.29;47.75;98473.88;1699606;82;25028;-86
2021/10/29 11:58:09;;;;;;;;;;;;;;;16.44;47.22;98472.94;1648352;85;26747;-86
2021/10/29 12:08:31;;;;;;;;;;;;;;;16.70;45.92;98457.30;1720542;81;21607;-85
2021/10/29 12:11:02;;;;;;;;;;;;;;;16.74;45.58;98446.80;1717054;81;26099;-86
2021/10/29 12:13:32;;;;;;;;;;;;;;;16.78;45.36;98448.17;1718917;81;24680;-86
2021/10/29 12:15:58;;;;;;;;;;;;;;;16.80;45.01;98442.23;1721240;81;20451;-85
2021/10/29 12:18:36;;;;;;;;;;;;;;;16.87;44.67;98447.29;1739691;80;20342;-85
2021/10/29 12:20:55;;;;;;;;;;;;;;;16.92;44.48;98439.75;1753129;80;22164;-86
2021/10/29 12:23:25;;;;;;;;;;;;;;;16.91;44.22;98443.88;1742601;81;26094;-85
2021/10/29 12:30:58;;;;;;;;;;;;;;;17.02;43.50;98437.08;1701788;82;24802;-86
2021/10/29 13:01:26;;;;;;;;;;;;;;;17.03;41.53;98418.89;1700150;82;22122;-86
2021/10/29 13:04:01;;;;;;;;;;;;;;;17.01;41.29;98416.90;1691376;82;26739;-86
2021/10/29 13:06:32;;;;;;;;;;;;;;;17.01;41.19;98420.38;1688636;82;24602;-86
2021/10/29 13:08:59;;;;;;;;;;;;;;;16.98;41.09;98414.05;1701642;82;20267;-85
2021/10/29 13:11:25;;;;;;;;;;;;;;;17.02;40.91;98415.92;1700267;82;25619;-86
2021/10/29 13:16:22;;;;;;;;;;;;;;;16.98;40.62;98415.86;1698432;82;26273;-85
2021/10/29 13:51:17;;;;;;;;;;;;;;;16.86;38.44;98412.58;1701502;82;25425;-85
2021/10/29 13:56:15;;;;;;;;;;;;;;;16.72;38.18;98409.11;1706288;82;25991;-85
2021/10/29 13:58:55;;;;;;;;;;;;;;;16.72;38.05;98407.30;1694674;83;24427;-84
2021/10/29 14:35:23;;;;;;;;;;;;;;;16.05;36.70;98413.25;1689981;83;26244;-85
2021/10/29 14:38:00;;;;;;;;;;;;;;;16.01;36.68;98414.03;1690596;83;24465;-85
2021/10/29 14:40:33;;;;;;;;;;;;;;;15.95;36.65;98412.44;1690478;83;20531;-85
2021/10/29 15:05:06;;;;;;;;;;;;;;;15.19;36.61;98407.47;1722859;81;24469;-85
2021/10/29 15:14:48;;;;;;;;;;;;;;;15.11;36.59;98406.83;1693958;83;20248;-85
2021/10/29 15:15:49;;;;;;;;;;;;;;;14.75;36.63;98400.37;1709777;83;26086;-84
2021/10/29 15:28:54;;;;;;;;;;;;;;;14.54;36.66;98391.70;1691267;82;26192;-85
2021/10/29 15:31:21;;;;;;;;;;;;;;;14.53;36.64;98390.87;1691444;82;24561;-85
2021/10/29 15:44:13;;;;;;;;;;;;;;;14.30;36.62;98387.19;1705176;82;24472;-85
2021/10/29 15:51:45;;;;;;;;;;;;;;;14.19;36.73;98375.78;1673807;84;22083;-85
2021/10/29 15:54:11;;;;;;;;;;;;;;;14.17;36.73;98373.78;1707050;83;26003;-84
2021/10/29 15:56:41;;;;;;;;;;;;;;;14.19;36.73;98377.09;1722941;82;24421;-84
2021/10/29 16:17:58;;;;;;;;;;;;;;;14.04;36.76;98382.36;1739555;81;22973;-84
2021/10/29 16:20:24;;;;;;;;;;;;;;;13.99;36.77;98379.77;1700852;82;21140;-84
2021/10/29 16:22:53;;;;;;;;;;;;;;;13.89;36.77;98381.03;1706613;82;24481;-84
2021/10/29 16:25:22;;;;;;;;;;;;;;;13.89;36.78;98378.88;1705237;82;20511;-84
2021/10/29 16:27:56;;;;;;;;;;;;;;;13.91;36.84;98376.45;1707930;82;24778;-84
2021/10/29 16:30:22;;;;;;;;;;;;;;;13.87;36.89;98371.10;1711778;83;21829;-84
2021/10/29 16:35:27;;;;;;;;;;;;;;;13.59;36.91;98370.42;1694970;82;25029;-84
2021/10/29 16:37:53;;;;;;;;;;;;;;;13.44;36.94;98373.84;1699745;82;20234;-87
2021/10/29 16:40:19;;;;;;;;;;;;;;;13.34;37.00;98375.56;1723005;82;20232;-84
2021/10/29 16:42:46;;;;;;;;;;;;;;;13.24;37.04;98368.92;1708972;82;20803;-84
2021/10/29 16:45:13;;;;;;;;;;;;;;;13.18;37.12;98368.58;1684991;83;26112;-84
2021/10/29 16:47:42;;;;;;;;;;;;;;;13.03;37.16;98373.74;1681452;83;25276;-84
2021/10/29 16:50:13;;;;;;;;;;;;;;;12.93;37.21;98378.88;1701975;82;20213;-84
2021/10/29 16:52:39;;;;;;;;;;;;;;;12.87;37.28;98379.39;1683885;82;24789;-84
2021/10/29 16:55:06;;;;;;;;;;;;;;;12.84;37.33;98375.20;1737248;82;22595;-84
2021/10/29 16:57:32;;;;;;;;;;;;;;;12.75;37.35;98373.80;1728948;80;26039;-83
2021/10/29 16:59:59;;;;;;;;;;;;;;;12.72;37.40;98373.55;1730268;81;24496;-84
2021/10/29 17:02:25;;;;;;;;;;;;;;;12.67;37.46;98365.68;1740549;81;20794;-84
2021/10/29 17:04:52;;;;;;;;;;;;;;;12.65;37.50;98364.52;1738033;82;20393;-84
2021/10/29 17:07:18;;;;;;;;;;;;;;;12.67;37.57;98371.77;1728531;81;22116;-84
2021/10/29 17:09:44;;;;;;;;;;;;;;;12.68;37.59;98365.57;1729896;81;21138;-84
2021/10/29 17:12:10;;;;;;;;;;;;;;;12.64;37.62;98373.81;1736166;81;24657;-84
2021/10/29 17:14:36;;;;;;;;;;;;;;;12.70;37.67;98375.95;1734978;81;20288;-84
2021/10/29 17:17:02;;;;;;;;;;;;;;;12.76;37.71;98374.16;1741006;81;25783;-86
2021/10/29 17:19:28;;;;;;;;;;;;;;;12.80;37.72;98382.98;1739380;81;20274;-84
2021/10/29 17:21:55;;;;;;;;;;;;;;;12.86;37.73;98371.99;1739224;81;25974;-84
2021/10/29 17:24:21;;;;;;;;;;;;;;;12.91;37.76;98379.50;1730838;81;25266;-84
2021/10/29 17:26:47;;;;;;;;;;;;;;;12.90;37.79;98373.41;1714743;83;20764;-86
2021/10/29 17:29:13;;;;;;;;;;;;;;;12.96;37.78;98371.61;1739063;81;20285;-86
2021/10/29 17:31:40;;;;;;;;;;;;;;;13.00;37.82;98382.69;1728677;81;20814;-86
2021/10/29 17:34:06;;;;;;;;;;;;;;;12.98;37.84;98380.17;1718186;82;26809;-86
2021/10/29 17:36:32;;;;;;;;;;;;;;;12.97;37.85;98381.63;1718120;82;24453;-86
2021/10/29 17:38:58;;;;;;;;;;;;;;;12.98;37.90;98382.00;1718694;82;20147;-86
2021/10/29 17:41:27;;;;;;;;;;;;;;;12.97;37.93;98386.41;1717710;82;24817;-84
2021/10/29 17:43:54;;;;;;;;;;;;;;;13.02;37.97;98387.83;1736539;81;20505;-84
2021/10/29 17:46:20;;;;;;;;;;;;;;;13.07;38.00;98389.12;1741233;81;26698;-84
2021/10/29 17:48:46;;;;;;;;;;;;;;;13.10;38.04;98390.17;1735996;81;23819;-84
2021/10/29 17:51:12;;;;;;;;;;;;;;;13.11;38.05;98389.70;1724685;81;20318;-84